Hurghada, Egypt
Current Conditions -  °F | °C
As of 3:00 AM on Thursday 27 Nov 2014 (Local Time) from HEGN Reporting Station
Clear Clear  
Wind Chill: 59°   Ceiling: Unl
Heat Index: 59°   Visibility: 6mi
Dew Point: 43°   Wind: 9mph
Humidity: 55%   Direction: 300°WNW
Pressure: 30.06"   Gusts: NA
Location:  27.23°N, 33.83°E
Report Text: HEGN 270100Z 30008KT CAVOK 15/06 Q1018 NOSIG
Loading
Personal Weather Stations






























Interactive Weather Map New forecast layout! Learn more

10-Day Weather Forecast

Advertisements
Track Severe Weather on mobile